createdAt,value
2022-08-27T00:03:32.206Z,20.65
2022-08-27T00:08:35.007Z,20.66
2022-08-27T00:13:37.727Z,20.64
2022-08-27T00:23:43.306Z,20.79
2022-08-27T00:28:45.944Z,20.78
2022-08-27T00:33:48.411Z,20.8
2022-08-27T00:38:52.803Z,20.83
2022-08-27T00:43:53.673Z,20.79
2022-08-27T00:48:56.543Z,20.86
2022-08-27T00:53:59.154Z,20.77
2022-08-27T00:59:01.788Z,20.79
2022-08-27T01:04:04.731Z,20.79
2022-08-27T01:09:07.239Z,20.79
2022-08-27T01:14:09.663Z,20.85
2022-08-27T01:24:14.384Z,20.98
2022-08-27T01:34:22.494Z,21.06
2022-08-27T01:39:24.996Z,20.87
2022-08-27T01:44:27.567Z,20.98
2022-08-27T01:49:30.066Z,20.91
2022-08-27T01:54:32.709Z,20.94
2022-08-27T01:59:39.237Z,20.9
2022-08-27T02:04:37.999Z,20.86
2022-08-27T02:09:40.789Z,20.85
2022-08-27T02:14:43.495Z,20.82
2022-08-27T02:24:48.628Z,20.9
2022-08-27T02:34:53.945Z,20.83
2022-08-27T02:39:56.482Z,20.88
2022-08-27T02:44:59.134Z,21
2022-08-27T02:50:01.809Z,21.07
2022-08-27T02:55:04.442Z,21.1
2022-08-27T03:00:07.140Z,21.02
2022-08-27T03:05:09.772Z,21.08
2022-08-27T03:10:15.381Z,21.13
2022-08-27T03:15:18.294Z,21.07
2022-08-27T03:20:21.072Z,21.03
2022-08-27T03:25:23.695Z,21.07
2022-08-27T03:30:26.180Z,20.91
2022-08-27T03:35:28.945Z,20.88
2022-08-27T03:40:34.280Z,20.74
2022-08-27T03:45:48.398Z,20.76
2022-08-27T03:50:39.760Z,20.79
2022-08-27T03:55:42.334Z,20.7
2022-08-27T04:00:45.197Z,20.64
2022-08-27T04:05:47.742Z,20.74
2022-08-27T04:10:50.421Z,20.77
2022-08-27T04:15:52.924Z,20.74
2022-08-27T04:20:55.620Z,20.59
2022-08-27T04:25:57.908Z,20.67
2022-08-27T04:31:00.542Z,20.64
2022-08-27T04:36:03.152Z,20.57
2022-08-27T04:41:05.948Z,20.61
2022-08-27T04:46:08.658Z,20.63
2022-08-27T04:51:12.501Z,20.65
2022-08-27T04:56:13.802Z,20.75
2022-08-27T05:01:16.679Z,20.84
2022-08-27T05:06:19.190Z,20.88
2022-08-27T05:12:01.488Z,20.86
2022-08-27T05:17:04.551Z,20.82
2022-08-27T05:22:07.282Z,20.85
2022-08-27T05:27:09.911Z,20.85
2022-08-27T05:32:12.194Z,20.81
2022-08-27T05:37:14.972Z,20.74
2022-08-27T05:42:17.950Z,20.86
2022-08-27T05:47:20.404Z,20.81
2022-08-27T05:52:24.247Z,20.91
2022-08-27T06:02:29.653Z,21.06
2022-08-27T06:07:32.404Z,21.27
2022-08-27T06:12:35.200Z,21.06
2022-08-27T06:17:38.019Z,21.09
2022-08-27T06:22:40.935Z,21.1
2022-08-27T06:27:43.750Z,21.07
2022-08-27T06:32:49.556Z,21.16
2022-08-27T06:37:52.349Z,21.16
2022-08-27T06:42:55.003Z,21.13
2022-08-27T06:53:00.774Z,21.36
2022-08-27T06:58:04.745Z,21.32
2022-08-27T07:03:07.503Z,21.17
2022-08-27T07:08:10.588Z,21.46
2022-08-27T07:13:13.208Z,21.63
2022-08-27T07:18:15.830Z,21.38
2022-08-27T07:23:18.526Z,21.53
2022-08-27T07:33:27.069Z,21.41
2022-08-27T07:38:29.850Z,21.57
2022-08-27T07:43:32.577Z,21.67
2022-08-27T07:58:41.013Z,21.87
2022-08-27T08:03:46.841Z,21.75
2022-08-27T08:08:49.618Z,22.07
2022-08-27T08:13:52.530Z,22.31
2022-08-27T08:18:55.350Z,22.42
2022-08-27T08:29:00.799Z,22.68
2022-08-27T08:34:03.749Z,22.84
2022-08-27T08:39:06.545Z,22.88
2022-08-27T08:44:09.249Z,22.75
2022-08-27T08:49:11.953Z,22.43
2022-08-27T08:54:14.949Z,22.35
2022-08-27T09:04:20.341Z,22.59
2022-08-27T09:14:25.807Z,22.52
2022-08-27T09:24:31.152Z,22.47
2022-08-27T09:29:33.824Z,22.35
2022-08-27T09:34:36.457Z,22.4
2022-08-27T09:39:39.247Z,22.86
2022-08-27T09:44:43.423Z,23.33
2022-08-27T09:49:46.073Z,23.56
2022-08-27T09:54:51.851Z,23.67
2022-08-27T09:59:54.539Z,23.68
2022-08-27T10:05:00.048Z,23.87
2022-08-27T10:10:05.716Z,24.59
2022-08-27T10:20:11.257Z,25.77
2022-08-27T10:25:14.048Z,24.27
2022-08-27T10:30:16.681Z,24.01
2022-08-27T10:35:19.137Z,23.84
2022-08-27T10:40:22.054Z,24.91
2022-08-27T10:45:30.672Z,26.17
2022-08-27T10:50:27.975Z,26.76
2022-08-27T10:55:30.672Z,26.74
2022-08-27T11:00:33.649Z,26.65
2022-08-27T11:05:36.154Z,25.65
2022-08-27T11:10:38.537Z,24.88
2022-08-27T11:20:43.925Z,25.32
2022-08-27T11:25:46.725Z,25.77
2022-08-27T11:30:49.602Z,25.45
2022-08-27T11:35:53.454Z,26.03
2022-08-27T11:45:59.256Z,25.65
2022-08-27T11:51:02.332Z,26.2
2022-08-27T11:56:04.958Z,26.06
2022-08-27T12:01:07.858Z,26.45
2022-08-27T12:06:10.697Z,26.76
2022-08-27T12:11:15.985Z,26.08
2022-08-27T12:16:19.079Z,25.87
2022-08-27T12:21:21.668Z,26.63
2022-08-27T12:26:24.706Z,26.87
2022-08-27T12:31:27.272Z,26.04
2022-08-27T12:36:30.238Z,27.05
2022-08-27T12:41:32.707Z,26.52
2022-08-27T12:46:35.290Z,26.05
2022-08-27T12:51:41.323Z,25.68
2022-08-27T12:56:43.778Z,25.8
2022-08-27T13:01:46.781Z,26.02
2022-08-27T13:06:49.399Z,26.13
2022-08-27T13:11:52.177Z,26.06
2022-08-27T13:16:54.877Z,26.09
2022-08-27T13:21:57.939Z,26.16
2022-08-27T13:27:00.467Z,25.69
2022-08-27T13:32:03.234Z,25.23
2022-08-27T13:37:06.000Z,25.37
2022-08-27T13:42:11.573Z,25.3
2022-08-27T13:47:14.259Z,25.47
2022-08-27T13:57:19.593Z,25.96
2022-08-27T14:07:25.250Z,26.09
2022-08-27T14:12:28.804Z,26.15
2022-08-27T14:17:30.668Z,25.92
2022-08-27T14:22:33.530Z,26.89
2022-08-27T14:37:41.640Z,26.14
2022-08-27T14:42:44.211Z,25.15
2022-08-27T14:47:46.629Z,24.7
2022-08-27T14:52:49.103Z,24.21
2022-08-27T14:57:51.632Z,23.83
2022-08-27T15:03:12.346Z,23.61
2022-08-27T15:08:15.597Z,23.35
2022-08-27T15:13:18.161Z,23.41
2022-08-27T15:23:23.621Z,23.43
2022-08-27T15:28:26.205Z,23.32
2022-08-27T15:33:28.972Z,23.46
2022-08-27T15:38:31.522Z,23.46
2022-08-27T15:43:34.322Z,23.32
2022-08-27T15:48:37.084Z,23.36
2022-08-27T15:58:42.500Z,23.2
2022-08-27T16:03:45.122Z,23.08
2022-08-27T16:08:47.609Z,22.88
2022-08-27T16:13:50.189Z,23
2022-08-27T16:18:52.788Z,22.86
2022-08-27T16:23:55.464Z,22.81
2022-08-27T16:28:58.450Z,22.58
2022-08-27T16:34:00.992Z,22.43
2022-08-27T16:39:03.678Z,22.48
2022-08-27T16:44:06.355Z,22.38
2022-08-27T16:49:08.968Z,22.23
2022-08-27T16:54:11.640Z,22.31
2022-08-27T16:59:14.349Z,22.21
2022-08-27T17:04:26.445Z,22.03
2022-08-27T17:09:19.510Z,22
2022-08-27T17:14:22.120Z,21.84
2022-08-27T17:19:24.735Z,21.8
2022-08-27T17:24:27.333Z,21.76
2022-08-27T17:34:32.868Z,21.64
2022-08-27T17:39:35.464Z,21.66
2022-08-27T17:44:38.166Z,21.73
2022-08-27T17:55:06.854Z,21.67
2022-08-27T18:00:09.479Z,21.68
2022-08-27T18:05:12.256Z,21.75
2022-08-27T18:10:14.882Z,21.61
2022-08-27T18:15:17.610Z,21.66
2022-08-27T18:20:20.242Z,21.71
2022-08-27T18:25:22.996Z,21.61
2022-08-27T18:35:28.312Z,21.46
2022-08-27T18:40:31.143Z,21.37
2022-08-27T18:45:33.756Z,21.35
2022-08-27T18:50:36.819Z,21.37
2022-08-27T18:55:39.618Z,21.31
2022-08-27T19:00:42.296Z,21.35
2022-08-27T19:05:45.009Z,21.39
2022-08-27T19:10:47.527Z,21.32
2022-08-27T19:15:50.242Z,21.24
2022-08-27T19:20:53.264Z,21.22
2022-08-27T19:25:55.854Z,21.2
2022-08-27T19:30:58.344Z,21.19
2022-08-27T19:36:01.138Z,21.18
2022-08-27T19:41:03.944Z,21.16
2022-08-27T19:46:07.425Z,20.99
2022-08-27T19:51:09.747Z,20.9
2022-08-27T19:56:12.088Z,20.82
2022-08-27T20:11:22.158Z,20.71
2022-08-27T20:26:27.841Z,20.82
2022-08-27T20:36:33.184Z,20.85
2022-08-27T20:41:35.911Z,20.82
2022-08-27T20:46:38.729Z,20.88
2022-08-27T20:51:51.657Z,20.89
2022-08-27T20:56:51.739Z,20.88
2022-08-27T21:01:49.744Z,20.85
2022-08-27T21:06:52.350Z,20.9
2022-08-27T21:11:55.044Z,21.01
2022-08-27T21:16:57.746Z,20.88
2022-08-27T21:22:04.313Z,20.85
2022-08-27T21:27:05.747Z,20.8
2022-08-27T21:32:08.522Z,20.86
2022-08-27T21:37:11.052Z,20.74
2022-08-27T21:42:13.700Z,20.77
2022-08-27T21:47:16.320Z,20.79
2022-08-27T21:52:18.901Z,20.7
2022-08-27T21:57:21.381Z,20.64
2022-08-27T22:02:40.030Z,20.63
2022-08-27T22:07:26.572Z,20.53
2022-08-27T22:17:32.187Z,20.66
2022-08-27T22:27:40.248Z,20.45
2022-08-27T22:32:43.030Z,20.42
2022-08-27T22:37:45.331Z,20.31
2022-08-27T22:42:48.029Z,20.32
2022-08-27T22:47:50.749Z,20.25
2022-08-27T22:52:53.538Z,20.23
2022-08-27T22:57:56.131Z,20.13
2022-08-27T23:02:58.711Z,19.96
2022-08-27T23:08:01.446Z,19.89
2022-08-27T23:13:04.171Z,19.88
2022-08-27T23:18:06.890Z,19.85
2022-08-27T23:23:09.453Z,19.94
2022-08-27T23:28:14.617Z,19.9
2022-08-27T23:33:14.522Z,19.89
2022-08-27T23:38:17.103Z,19.89
2022-08-27T23:43:19.822Z,19.83
2022-08-27T23:48:22.531Z,19.94
2022-08-27T23:53:24.962Z,19.89
2022-08-27T23:58:27.580Z,19.83
